TDA814 RJFK-RJFF
Flight info
| Callsign | TDA814 |
|---|---|
| Flight time | 0h 29m |
| Altitude | 17000 |
| Route | SASIK G339 TAIME Y14 OSTEP HONOK |
| Aircraft | MD81/M-SDE3FGHIRWXY/S |
Departure
| Time | 2026-04-26 13:59 |
|---|---|
| Airport | Kagoshima Airport (RJFK) |
Arrival
| Time | 2026-04-26 14:28 |
|---|---|
| Airport | Fukuoka Airport (RJFF) |
| Time | Latitude | Longitude | Altitude | Speed | Heading |
|---|---|---|---|---|---|
| 2026-04-26 13:30 | 31.80102 | 130.71721 | 902 ft | 0 kts | 239° |
| 2026-04-26 13:51 | 31.80102 | 130.71723 | 902 ft | 2 kts | 239° |
| 2026-04-26 13:51 | 31.80115 | 130.71749 | 903 ft | 4 kts | 239° |
| 2026-04-26 13:52 | 31.80130 | 130.71775 | 903 ft | 4 kts | 229° |
| 2026-04-26 13:52 | 31.80150 | 130.71796 | 904 ft | 4 kts | 212° |
| 2026-04-26 13:52 | 31.80174 | 130.71809 | 906 ft | 4 kts | 195° |
| 2026-04-26 13:52 | 31.80187 | 130.71813 | 906 ft | 1 kts | 193° |
| 2026-04-26 13:53 | 31.80188 | 130.71813 | 907 ft | 0 kts | 193° |
| 2026-04-26 13:55 | 31.80078 | 130.71885 | 906 ft | 18 kts | 147° |
| 2026-04-26 13:56 | 31.79955 | 130.71973 | 906 ft | 24 kts | 150° |
| 2026-04-26 13:56 | 31.79798 | 130.72080 | 906 ft | 28 kts | 148° |
| 2026-04-26 13:56 | 31.79612 | 130.72188 | 905 ft | 29 kts | 149° |
| 2026-04-26 13:56 | 31.79476 | 130.72293 | 908 ft | 24 kts | 140° |
| 2026-04-26 13:57 | 31.79336 | 130.72388 | 908 ft | 25 kts | 153° |
| 2026-04-26 13:57 | 31.79169 | 130.72491 | 910 ft | 25 kts | 147° |
| 2026-04-26 13:57 | 31.79117 | 130.72594 | 910 ft | 18 kts | 78° |
| 2026-04-26 13:57 | 31.79180 | 130.72691 | 910 ft | 14 kts | 29° |
| 2026-04-26 13:58 | 31.79282 | 130.72658 | 916 ft | 18 kts | 323° |
| 2026-04-26 13:58 | 31.79465 | 130.72534 | 913 ft | 65 kts | 330° |
| 2026-04-26 13:58 | 31.80128 | 130.72082 | 920 ft | 151 kts | 330° |
| 2026-04-26 13:58 | 31.81228 | 130.71349 | 1135 ft | 206 kts | 330° |
| 2026-04-26 13:59 | 31.82496 | 130.70536 | 2211 ft | 204 kts | 331° |
| 2026-04-26 13:59 | 31.83595 | 130.69911 | 3457 ft | 186 kts | 335° |
| 2026-04-26 13:59 | 31.84802 | 130.69408 | 4289 ft | 184 kts | 343° |
| 2026-04-26 14:00 | 31.88912 | 130.68209 | 5243 ft | 225 kts | 345° |
| 2026-04-26 14:00 | 31.90489 | 130.67758 | 5434 ft | 241 kts | 345° |
| 2026-04-26 14:00 | 31.91613 | 130.67431 | 5546 ft | 251 kts | 345° |
| 2026-04-26 14:01 | 31.93924 | 130.66741 | 5862 ft | 264 kts | 345° |
| 2026-04-26 14:01 | 31.95707 | 130.66190 | 6248 ft | 267 kts | 343° |
| 2026-04-26 14:01 | 31.97496 | 130.65543 | 6627 ft | 275 kts | 340° |
| 2026-04-26 14:01 | 31.99286 | 130.64825 | 7321 ft | 274 kts | 339° |
| 2026-04-26 14:02 | 32.01068 | 130.64091 | 8033 ft | 274 kts | 338° |
| 2026-04-26 14:02 | 32.02875 | 130.63335 | 8655 ft | 277 kts | 338° |
| 2026-04-26 14:02 | 32.04699 | 130.62568 | 9280 ft | 280 kts | 338° |
| 2026-04-26 14:02 | 32.06542 | 130.61794 | 9871 ft | 283 kts | 337° |
| 2026-04-26 14:03 | 32.08424 | 130.61008 | 10214 ft | 295 kts | 337° |
| 2026-04-26 14:03 | 32.10420 | 130.60169 | 10374 ft | 313 kts | 337° |
| 2026-04-26 14:03 | 32.12521 | 130.59283 | 10547 ft | 328 kts | 338° |
| 2026-04-26 14:03 | 32.14724 | 130.58360 | 10738 ft | 343 kts | 338° |
| 2026-04-26 14:04 | 32.16995 | 130.57420 | 11262 ft | 346 kts | 339° |
| 2026-04-26 14:04 | 32.19274 | 130.56493 | 11899 ft | 347 kts | 339° |
| 2026-04-26 14:04 | 32.21562 | 130.55561 | 12483 ft | 348 kts | 338° |
| 2026-04-26 14:04 | 32.23861 | 130.54622 | 13012 ft | 351 kts | 338° |
| 2026-04-26 14:05 | 32.26188 | 130.53674 | 13531 ft | 356 kts | 338° |
| 2026-04-26 14:05 | 32.28532 | 130.52719 | 14077 ft | 357 kts | 338° |
| 2026-04-26 14:05 | 32.30908 | 130.51967 | 14580 ft | 362 kts | 349° |
| 2026-04-26 14:05 | 32.33428 | 130.51714 | 15097 ft | 365 kts | 354° |
| 2026-04-26 14:06 | 32.35977 | 130.51589 | 15588 ft | 368 kts | 354° |
| 2026-04-26 14:06 | 32.38545 | 130.51478 | 16096 ft | 371 kts | 355° |
| 2026-04-26 14:06 | 32.41134 | 130.51347 | 16538 ft | 375 kts | 354° |
| 2026-04-26 14:06 | 32.43747 | 130.51160 | 16730 ft | 377 kts | 353° |
| 2026-04-26 14:07 | 32.46346 | 130.50938 | 16826 ft | 369 kts | 352° |
| 2026-04-26 14:07 | 32.48867 | 130.50704 | 16875 ft | 360 kts | 352° |
| 2026-04-26 14:07 | 32.51366 | 130.50458 | 16900 ft | 360 kts | 352° |
| 2026-04-26 14:07 | 32.53858 | 130.50207 | 16911 ft | 359 kts | 352° |
| 2026-04-26 14:08 | 32.56342 | 130.49959 | 16916 ft | 358 kts | 352° |
| 2026-04-26 14:08 | 32.58831 | 130.49709 | 16922 ft | 359 kts | 352° |
| 2026-04-26 14:08 | 32.61330 | 130.49463 | 16920 ft | 360 kts | 352° |
| 2026-04-26 14:08 | 32.63829 | 130.49221 | 16916 ft | 360 kts | 352° |
| 2026-04-26 14:09 | 32.66328 | 130.48984 | 16919 ft | 360 kts | 352° |
| 2026-04-26 14:09 | 32.68832 | 130.48747 | 16917 ft | 361 kts | 352° |
| 2026-04-26 14:09 | 32.71336 | 130.48512 | 16918 ft | 361 kts | 352° |
| 2026-04-26 14:09 | 32.73808 | 130.48281 | 16918 ft | 361 kts | 352° |
| 2026-04-26 14:10 | 32.76311 | 130.48047 | 16921 ft | 361 kts | 352° |
| 2026-04-26 14:10 | 32.78820 | 130.47812 | 16926 ft | 361 kts | 352° |
| 2026-04-26 14:10 | 32.81325 | 130.47575 | 16923 ft | 361 kts | 353° |
| 2026-04-26 14:10 | 32.83834 | 130.47340 | 16920 ft | 362 kts | 352° |
| 2026-04-26 14:11 | 32.88849 | 130.46856 | 16914 ft | 362 kts | 352° |
| 2026-04-26 14:11 | 32.91358 | 130.46592 | 16914 ft | 362 kts | 352° |
| 2026-04-26 14:11 | 32.93863 | 130.46323 | 16915 ft | 362 kts | 352° |
| 2026-04-26 14:12 | 32.96373 | 130.46052 | 16918 ft | 362 kts | 352° |
| 2026-04-26 14:12 | 32.98884 | 130.45782 | 16919 ft | 362 kts | 352° |
| 2026-04-26 14:12 | 33.01397 | 130.45512 | 16923 ft | 363 kts | 352° |
| 2026-04-26 14:12 | 33.03899 | 130.45160 | 16915 ft | 361 kts | 343° |
| 2026-04-26 14:13 | 33.08378 | 130.42577 | 16208 ft | 357 kts | 328° |
| 2026-04-26 14:13 | 33.10539 | 130.41128 | 15834 ft | 355 kts | 329° |
| 2026-04-26 14:13 | 33.12715 | 130.39742 | 15464 ft | 353 kts | 330° |
| 2026-04-26 14:14 | 33.14892 | 130.38411 | 15092 ft | 351 kts | 331° |
| 2026-04-26 14:14 | 33.17068 | 130.37101 | 14737 ft | 349 kts | 332° |
| 2026-04-26 14:14 | 33.19255 | 130.35838 | 14382 ft | 348 kts | 333° |
| 2026-04-26 14:14 | 33.21452 | 130.34621 | 14026 ft | 347 kts | 333° |
| 2026-04-26 14:15 | 33.23614 | 130.33442 | 13683 ft | 346 kts | 333° |
| 2026-04-26 14:15 | 33.25798 | 130.32250 | 13294 ft | 344 kts | 333° |
| 2026-04-26 14:15 | 33.27969 | 130.31055 | 12895 ft | 343 kts | 333° |
| 2026-04-26 14:15 | 33.30126 | 130.29859 | 12504 ft | 341 kts | 334° |
| 2026-04-26 14:16 | 33.32272 | 130.28662 | 12124 ft | 340 kts | 334° |
| 2026-04-26 14:16 | 33.34458 | 130.27590 | 11748 ft | 339 kts | 339° |
| 2026-04-26 14:16 | 33.36697 | 130.26708 | 11379 ft | 338 kts | 343° |
| 2026-04-26 14:16 | 33.38998 | 130.26127 | 10915 ft | 338 kts | 350° |
| 2026-04-26 14:17 | 33.41314 | 130.25712 | 10310 ft | 335 kts | 351° |
| 2026-04-26 14:17 | 33.43606 | 130.25328 | 9707 ft | 328 kts | 352° |
| 2026-04-26 14:17 | 33.45816 | 130.24955 | 9048 ft | 314 kts | 352° |
| 2026-04-26 14:17 | 33.47941 | 130.24595 | 8415 ft | 303 kts | 352° |
| 2026-04-26 14:18 | 33.49992 | 130.24247 | 7795 ft | 293 kts | 352° |
| 2026-04-26 14:18 | 33.51986 | 130.23899 | 7181 ft | 286 kts | 352° |
| 2026-04-26 14:18 | 33.53926 | 130.23555 | 6574 ft | 279 kts | 352° |
| 2026-04-26 14:18 | 33.55825 | 130.23212 | 5946 ft | 273 kts | 352° |
| 2026-04-26 14:19 | 33.57678 | 130.22872 | 5429 ft | 265 kts | 352° |
| 2026-04-26 14:19 | 33.59481 | 130.22533 | 4908 ft | 263 kts | 352° |
| 2026-04-26 14:19 | 33.61284 | 130.22189 | 4296 ft | 261 kts | 352° |
| 2026-04-26 14:19 | 33.63071 | 130.21847 | 3677 ft | 259 kts | 352° |
| 2026-04-26 14:20 | 33.64796 | 130.21522 | 3302 ft | 249 kts | 352° |
| 2026-04-26 14:20 | 33.66502 | 130.21205 | 2936 ft | 247 kts | 352° |
| 2026-04-26 14:20 | 33.68174 | 130.20897 | 2578 ft | 238 kts | 352° |
| 2026-04-26 14:20 | 33.69736 | 130.20605 | 2675 ft | 217 kts | 352° |
| 2026-04-26 14:21 | 33.71199 | 130.20329 | 3194 ft | 216 kts | 352° |
| 2026-04-26 14:21 | 33.72698 | 130.20047 | 3299 ft | 215 kts | 352° |
| 2026-04-26 14:21 | 33.74187 | 130.19779 | 3278 ft | 215 kts | 356° |
| 2026-04-26 14:21 | 33.75594 | 130.20226 | 3242 ft | 215 kts | 40° |
| 2026-04-26 14:22 | 33.76461 | 130.21679 | 3177 ft | 216 kts | 60° |
| 2026-04-26 14:22 | 33.77183 | 130.23264 | 3041 ft | 216 kts | 60° |
| 2026-04-26 14:22 | 33.77904 | 130.24851 | 2836 ft | 216 kts | 60° |
| 2026-04-26 14:22 | 33.78608 | 130.26439 | 2634 ft | 214 kts | 65° |
| 2026-04-26 14:23 | 33.78785 | 130.28167 | 2433 ft | 211 kts | 108° |
| 2026-04-26 14:23 | 33.78107 | 130.29741 | 2256 ft | 218 kts | 121° |
| 2026-04-26 14:23 | 33.77306 | 130.31313 | 2110 ft | 220 kts | 124° |
| 2026-04-26 14:23 | 33.76203 | 130.32589 | 2055 ft | 224 kts | 145° |
| 2026-04-26 14:24 | 33.74904 | 130.33632 | 2010 ft | 225 kts | 145° |
| 2026-04-26 14:24 | 33.73646 | 130.34637 | 1981 ft | 205 kts | 147° |
| 2026-04-26 14:24 | 33.72494 | 130.35459 | 1978 ft | 182 kts | 149° |
| 2026-04-26 14:24 | 33.71415 | 130.36204 | 2047 ft | 176 kts | 149° |
| 2026-04-26 14:25 | 33.70405 | 130.36900 | 1952 ft | 160 kts | 149° |
| 2026-04-26 14:25 | 33.69492 | 130.37529 | 1971 ft | 146 kts | 149° |
| 2026-04-26 14:25 | 33.68586 | 130.38155 | 1975 ft | 150 kts | 149° |
| 2026-04-26 14:25 | 33.67664 | 130.38791 | 1906 ft | 157 kts | 149° |
| 2026-04-26 14:26 | 33.66723 | 130.39444 | 1678 ft | 155 kts | 149° |
| 2026-04-26 14:26 | 33.65795 | 130.40086 | 1432 ft | 153 kts | 148° |
| 2026-04-26 14:26 | 33.64877 | 130.40722 | 1227 ft | 152 kts | 149° |
| 2026-04-26 14:26 | 33.63964 | 130.41355 | 1019 ft | 150 kts | 149° |
| 2026-04-26 14:27 | 33.63057 | 130.41982 | 840 ft | 149 kts | 150° |
| 2026-04-26 14:27 | 33.62176 | 130.42603 | 665 ft | 146 kts | 149° |
| 2026-04-26 14:27 | 33.61295 | 130.43228 | 457 ft | 143 kts | 150° |
| 2026-04-26 14:27 | 33.60453 | 130.43805 | 275 ft | 140 kts | 150° |
| 2026-04-26 14:28 | 33.59602 | 130.44383 | 57 ft | 140 kts | 150° |
| 2026-04-26 14:28 | 33.58803 | 130.44931 | 32 ft | 115 kts | 150° |
| 2026-04-26 14:28 | 33.58340 | 130.45322 | 33 ft | 50 kts | 122° |
| 2026-04-26 14:28 | 33.58318 | 130.45472 | 33 ft | 20 kts | 45° |
| 2026-04-26 14:29 | 33.58401 | 130.45428 | 33 ft | 11 kts | 325° |
| 2026-04-26 14:29 | 33.58473 | 130.45377 | 30 ft | 14 kts | 330° |
| 2026-04-26 14:29 | 33.58554 | 130.45321 | 29 ft | 11 kts | 330° |
| 2026-04-26 14:29 | 33.58625 | 130.45273 | 29 ft | 12 kts | 330° |
| 2026-04-26 14:30 | 33.58678 | 130.45237 | 28 ft | 13 kts | 330° |
| 2026-04-26 14:30 | 33.58759 | 130.45181 | 28 ft | 14 kts | 330° |
| 2026-04-26 14:30 | 33.58849 | 130.45120 | 27 ft | 15 kts | 330° |
| 2026-04-26 14:30 | 33.58946 | 130.45055 | 27 ft | 16 kts | 330° |
| 2026-04-26 14:31 | 33.59048 | 130.44984 | 26 ft | 17 kts | 330° |
| 2026-04-26 14:31 | 33.59157 | 130.44909 | 26 ft | 18 kts | 330° |
| 2026-04-26 14:31 | 33.59274 | 130.44849 | 25 ft | 18 kts | 356° |
| 2026-04-26 14:31 | 33.59398 | 130.44836 | 26 ft | 18 kts | 341° |
| 2026-04-26 14:32 | 33.59507 | 130.44767 | 27 ft | 18 kts | 331° |
| 2026-04-26 14:32 | 33.59616 | 130.44695 | 26 ft | 18 kts | 331° |
| 2026-04-26 14:32 | 33.59728 | 130.44619 | 27 ft | 19 kts | 331° |
| 2026-04-26 14:32 | 33.59820 | 130.44556 | 26 ft | 12 kts | 329° |
| 2026-04-26 14:33 | 33.59892 | 130.44506 | 26 ft | 12 kts | 330° |
| 2026-04-26 14:33 | 33.59946 | 130.44470 | 26 ft | 8 kts | 330° |
| 2026-04-26 14:33 | 33.59986 | 130.44465 | 26 ft | 2 kts | 41° |
| 2026-04-26 14:33 | 33.59993 | 130.44479 | 26 ft | 3 kts | 57° |
| 2026-04-26 14:34 | 33.60005 | 130.44502 | 26 ft | 4 kts | 59° |
| 2026-04-26 14:34 | 33.60013 | 130.44518 | 26 ft | 2 kts | 60° |
| 2026-04-26 14:34 | 33.60015 | 130.44521 | 26 ft | 0 kts | 60° |
| 2026-04-26 14:34 | 33.60011 | 130.44514 | 26 ft | 0 kts | 60° |
| 2026-04-26 14:35 | 33.60012 | 130.44517 | 26 ft | 0 kts | 60° |
| 2026-04-26 14:35 | 33.60011 | 130.44514 | 26 ft | 0 kts | 60° |